sensor_id;sensor_type;location;lat;lon;timestamp;temperature;humidity
22923;DHT22;11627;51.322;22.816;2024-02-21T00:04:48;5.20;99.90
22923;DHT22;11627;51.322;22.816;2024-02-21T00:07:14;5.40;99.90
22923;DHT22;11627;51.322;22.816;2024-02-21T00:12:07;5.00;99.90
22923;DHT22;11627;51.322;22.816;2024-02-21T00:17:00;4.80;99.90
22923;DHT22;11627;51.322;22.816;2024-02-21T00:24:18;5.20;99.90
22923;DHT22;11627;51.322;22.816;2024-02-21T00:26:44;5.00;99.90
22923;DHT22;11627;51.322;22.816;2024-02-21T00:29:11;5.00;99.90
22923;DHT22;11627;51.322;22.816;2024-02-21T00:31:39;5.00;99.90
22923;DHT22;11627;51.322;22.816;2024-02-21T00:34:05;5.00;99.90
22923;DHT22;11627;51.322;22.816;2024-02-21T00:46:15;5.00;99.90
22923;DHT22;11627;51.322;22.816;2024-02-21T00:48:43;4.90;99.90
22923;DHT22;11627;51.322;22.816;2024-02-21T00:51:08;5.00;99.90
22923;DHT22;11627;51.322;22.816;2024-02-21T00:56:07;4.80;99.90
22923;DHT22;11627;51.322;22.816;2024-02-21T01:01:00;5.00;99.90
22923;DHT22;11627;51.322;22.816;2024-02-21T01:03:27;5.00;99.90
22923;DHT22;11627;51.322;22.816;2024-02-21T01:05:52;4.80;99.90
22923;DHT22;11627;51.322;22.816;2024-02-21T01:08:18;5.00;99.90
22923;DHT22;11627;51.322;22.816;2024-02-21T01:13:10;5.20;99.90
22923;DHT22;11627;51.322;22.816;2024-02-21T01:15:36;4.70;99.90
22923;DHT22;11627;51.322;22.816;2024-02-21T01:20:31;4.90;99.90
22923;DHT22;11627;51.322;22.816;2024-02-21T01:22:57;5.00;99.90
22923;DHT22;11627;51.322;22.816;2024-02-21T01:25:23;4.90;99.90
22923;DHT22;11627;51.322;22.816;2024-02-21T01:35:08;4.70;99.90
22923;DHT22;11627;51.322;22.816;2024-02-21T01:37:34;4.90;99.90
22923;DHT22;11627;51.322;22.816;2024-02-21T01:40:01;5.20;99.90
22923;DHT22;11627;51.322;22.816;2024-02-21T01:44:56;4.70;99.90
22923;DHT22;11627;51.322;22.816;2024-02-21T01:47:22;4.90;99.90
22923;DHT22;11627;51.322;22.816;2024-02-21T01:49:49;4.80;99.90
22923;DHT22;11627;51.322;22.816;2024-02-21T01:52:15;5.10;99.90
22923;DHT22;11627;51.322;22.816;2024-02-21T01:54:43;4.80;99.90
22923;DHT22;11627;51.322;22.816;2024-02-21T01:57:09;4.70;99.90
22923;DHT22;11627;51.322;22.816;2024-02-21T02:02:02;4.50;99.90
22923;DHT22;11627;51.322;22.816;2024-02-21T02:06:55;4.70;99.90
22923;DHT22;11627;51.322;22.816;2024-02-21T02:09:21;4.60;99.90
22923;DHT22;11627;51.322;22.816;2024-02-21T02:11:50;4.80;99.90
22923;DHT22;11627;51.322;22.816;2024-02-21T02:14:16;4.80;99.90
22923;DHT22;11627;51.322;22.816;2024-02-21T02:16:42;4.80;99.90
22923;DHT22;11627;51.322;22.816;2024-02-21T02:19:11;4.80;99.90
22923;DHT22;11627;51.322;22.816;2024-02-21T02:21:42;4.70;99.90
22923;DHT22;11627;51.322;22.816;2024-02-21T02:24:13;4.50;99.90
22923;DHT22;11627;51.322;22.816;2024-02-21T02:26:40;4.60;99.90
22923;DHT22;11627;51.322;22.816;2024-02-21T02:33:58;4.30;99.90
22923;DHT22;11627;51.322;22.816;2024-02-21T02:36:24;5.00;99.90
22923;DHT22;11627;51.322;22.816;2024-02-21T02:41:19;4.40;99.90
22923;DHT22;11627;51.322;22.816;2024-02-21T02:48:38;4.70;99.90
22923;DHT22;11627;51.322;22.816;2024-02-21T02:51:04;4.40;99.90
22923;DHT22;11627;51.322;22.816;2024-02-21T02:53:31;4.60;99.90
22923;DHT22;11627;51.322;22.816;2024-02-21T03:00:49;4.30;99.90
22923;DHT22;11627;51.322;22.816;2024-02-21T03:03:17;4.50;99.90
22923;DHT22;11627;51.322;22.816;2024-02-21T03:05:43;4.00;99.90
22923;DHT22;11627;51.322;22.816;2024-02-21T03:08:09;4.60;99.90
22923;DHT22;11627;51.322;22.816;2024-02-21T03:15:29;4.40;99.90
22923;DHT22;11627;51.322;22.816;2024-02-21T03:17:56;4.30;99.90
22923;DHT22;11627;51.322;22.816;2024-02-21T03:22:49;4.40;99.90
22923;DHT22;11627;51.322;22.816;2024-02-21T03:25:15;4.40;99.90
22923;DHT22;11627;51.322;22.816;2024-02-21T03:27:41;4.40;99.90
22923;DHT22;11627;51.322;22.816;2024-02-21T03:30:07;4.20;99.90
22923;DHT22;11627;51.322;22.816;2024-02-21T03:49:38;3.70;99.90
22923;DHT22;11627;51.322;22.816;2024-02-21T03:52:06;3.60;99.90
22923;DHT22;11627;51.322;22.816;2024-02-21T03:59:26;3.70;99.90
22923;DHT22;11627;51.322;22.816;2024-02-21T04:01:54;3.80;99.90
22923;DHT22;11627;51.322;22.816;2024-02-21T04:04:20;3.60;99.90
22923;DHT22;11627;51.322;22.816;2024-02-21T04:06:50;3.80;99.90
22923;DHT22;11627;51.322;22.816;2024-02-21T04:09:17;3.70;99.90
22923;DHT22;11627;51.322;22.816;2024-02-21T04:11:43;3.60;99.90
22923;DHT22;11627;51.322;22.816;2024-02-21T04:14:09;3.90;99.90
22923;DHT22;11627;51.322;22.816;2024-02-21T04:16:39;3.80;99.90
22923;DHT22;11627;51.322;22.816;2024-02-21T04:19:06;3.70;99.90
22923;DHT22;11627;51.322;22.816;2024-02-21T04:21:36;3.70;99.90
22923;DHT22;11627;51.322;22.816;2024-02-21T04:26:31;3.70;99.90
22923;DHT22;11627;51.322;22.816;2024-02-21T04:31:23;3.80;99.90
22923;DHT22;11627;51.322;22.816;2024-02-21T04:38:43;3.80;99.90
22923;DHT22;11627;51.322;22.816;2024-02-21T04:43:36;3.50;99.90
22923;DHT22;11627;51.322;22.816;2024-02-21T04:48:29;3.70;99.90
22923;DHT22;11627;51.322;22.816;2024-02-21T04:50:55;3.50;99.90
22923;DHT22;11627;51.322;22.816;2024-02-21T04:53:23;3.80;99.90
22923;DHT22;11627;51.322;22.816;2024-02-21T04:55:48;3.60;99.90
22923;DHT22;11627;51.322;22.816;2024-02-21T05:00:40;3.40;99.90
22923;DHT22;11627;51.322;22.816;2024-02-21T05:03:09;3.70;99.90
22923;DHT22;11627;51.322;22.816;2024-02-21T05:08:01;3.50;99.90
22923;DHT22;11627;51.322;22.816;2024-02-21T05:15:20;4.00;99.90
22923;DHT22;11627;51.322;22.816;2024-02-21T05:20:13;4.20;99.90
22923;DHT22;11627;51.322;22.816;2024-02-21T05:22:40;4.10;99.90
22923;DHT22;11627;51.322;22.816;2024-02-21T05:25:07;4.30;99.90
22923;DHT22;11627;51.322;22.816;2024-02-21T05:30:01;3.70;99.90
22923;DHT22;11627;51.322;22.816;2024-02-21T05:34:53;3.80;99.90
22923;DHT22;11627;51.322;22.816;2024-02-21T05:37:18;4.10;99.90
22923;DHT22;11627;51.322;22.816;2024-02-21T05:39:47;3.90;99.90
22923;DHT22;11627;51.322;22.816;2024-02-21T05:44:40;3.80;99.90
22923;DHT22;11627;51.322;22.816;2024-02-21T05:47:08;3.80;99.90
22923;DHT22;11627;51.322;22.816;2024-02-21T05:49:36;3.90;99.90
22923;DHT22;11627;51.322;22.816;2024-02-21T05:56:55;3.80;99.90
22923;DHT22;11627;51.322;22.816;2024-02-21T05:59:20;3.90;99.90
22923;DHT22;11627;51.322;22.816;2024-02-21T06:01:57;4.10;99.90
22923;DHT22;11627;51.322;22.816;2024-02-21T06:04:25;3.80;99.90
22923;DHT22;11627;51.322;22.816;2024-02-21T06:06:50;3.90;99.90
22923;DHT22;11627;51.322;22.816;2024-02-21T06:09:16;4.00;99.90
22923;DHT22;11627;51.322;22.816;2024-02-21T06:14:08;4.00;99.90
22923;DHT22;11627;51.322;22.816;2024-02-21T06:19:00;4.00;99.90
22923;DHT22;11627;51.322;22.816;2024-02-21T06:21:30;3.70;99.90
22923;DHT22;11627;51.322;22.816;2024-02-21T06:28:53;4.10;99.90
22923;DHT22;11627;51.322;22.816;2024-02-21T06:33:46;4.30;99.90
22923;DHT22;11627;51.322;22.816;2024-02-21T06:36:12;4.30;99.90
22923;DHT22;11627;51.322;22.816;2024-02-21T06:38:40;3.90;99.90
22923;DHT22;11627;51.322;22.816;2024-02-21T06:41:17;4.20;99.90
22923;DHT22;11627;51.322;22.816;2024-02-21T06:43:45;4.10;99.90
22923;DHT22;11627;51.322;22.816;2024-02-21T06:46:23;4.10;99.90
22923;DHT22;11627;51.322;22.816;2024-02-21T06:48:51;4.30;99.90
22923;DHT22;11627;51.322;22.816;2024-02-21T06:51:17;4.40;99.90
22923;DHT22;11627;51.322;22.816;2024-02-21T06:56:10;4.40;99.90
22923;DHT22;11627;51.322;22.816;2024-02-21T06:58:38;4.30;99.90
22923;DHT22;11627;51.322;22.816;2024-02-21T07:03:33;4.30;99.90
22923;DHT22;11627;51.322;22.816;2024-02-21T07:08:27;4.40;99.90
22923;DHT22;11627;51.322;22.816;2024-02-21T07:13:20;4.40;99.90
22923;DHT22;11627;51.322;22.816;2024-02-21T07:15:49;4.50;99.90
22923;DHT22;11627;51.322;22.816;2024-02-21T07:18:15;4.60;99.90
22923;DHT22;11627;51.322;22.816;2024-02-21T07:20:41;4.50;99.90
22923;DHT22;11627;51.322;22.816;2024-02-21T07:23:12;4.60;99.90
22923;DHT22;11627;51.322;22.816;2024-02-21T07:25:38;4.90;99.90
22923;DHT22;11627;51.322;22.816;2024-02-21T07:28:05;4.60;99.90
22923;DHT22;11627;51.322;22.816;2024-02-21T07:30:32;4.60;99.90
22923;DHT22;11627;51.322;22.816;2024-02-21T07:32:58;4.70;99.90
22923;DHT22;11627;51.322;22.816;2024-02-21T07:37:50;4.70;99.90
22923;DHT22;11627;51.322;22.816;2024-02-21T07:40:18;4.60;99.90
22923;DHT22;11627;51.322;22.816;2024-02-21T07:42:46;4.60;99.90
22923;DHT22;11627;51.322;22.816;2024-02-21T07:47:40;4.60;99.90
22923;DHT22;11627;51.322;22.816;2024-02-21T07:50:08;4.70;99.90
22923;DHT22;11627;51.322;22.816;2024-02-21T07:55:00;5.00;99.90
22923;DHT22;11627;51.322;22.816;2024-02-21T07:57:27;4.70;99.90
22923;DHT22;11627;51.322;22.816;2024-02-21T07:59:56;5.00;99.90
22923;DHT22;11627;51.322;22.816;2024-02-21T08:02:23;5.00;99.90
22923;DHT22;11627;51.322;22.816;2024-02-21T08:04:49;5.10;99.90
22923;DHT22;11627;51.322;22.816;2024-02-21T08:07:15;5.30;99.90
22923;DHT22;11627;51.322;22.816;2024-02-21T08:09:42;5.10;99.90
22923;DHT22;11627;51.322;22.816;2024-02-21T08:17:01;5.30;99.90
22923;DHT22;11627;51.322;22.816;2024-02-21T08:19:31;5.00;99.90
22923;DHT22;11627;51.322;22.816;2024-02-21T08:21:58;5.30;99.90
22923;DHT22;11627;51.322;22.816;2024-02-21T08:29:17;5.50;99.90
22923;DHT22;11627;51.322;22.816;2024-02-21T08:31:44;5.30;99.90
22923;DHT22;11627;51.322;22.816;2024-02-21T08:36:38;5.50;99.90
22923;DHT22;11627;51.322;22.816;2024-02-21T08:41:32;5.20;99.90
22923;DHT22;11627;51.322;22.816;2024-02-21T08:44:00;5.60;99.90
22923;DHT22;11627;51.322;22.816;2024-02-21T08:46:26;5.60;99.90
22923;DHT22;11627;51.322;22.816;2024-02-21T08:48:55;5.60;99.90
22923;DHT22;11627;51.322;22.816;2024-02-21T08:51:22;5.70;99.90
22923;DHT22;11627;51.322;22.816;2024-02-21T08:53:49;5.60;99.90
22923;DHT22;11627;51.322;22.816;2024-02-21T08:56:16;5.30;99.90
22923;DHT22;11627;51.322;22.816;2024-02-21T08:58:42;5.50;99.90
22923;DHT22;11627;51.322;22.816;2024-02-21T09:03:38;5.40;99.90
22923;DHT22;11627;51.322;22.816;2024-02-21T09:06:05;5.60;99.90
22923;DHT22;11627;51.322;22.816;2024-02-21T09:08:35;5.50;99.90
22923;DHT22;11627;51.322;22.816;2024-02-21T09:11:01;5.80;99.90
22923;DHT22;11627;51.322;22.816;2024-02-21T09:13:27;5.90;99.90
22923;DHT22;11627;51.322;22.816;2024-02-21T09:15:57;5.90;99.90
22923;DHT22;11627;51.322;22.816;2024-02-21T09:18:25;6.20;99.90
22923;DHT22;11627;51.322;22.816;2024-02-21T09:20:52;6.10;99.90
22923;DHT22;11627;51.322;22.816;2024-02-21T09:23:19;6.10;99.90
22923;DHT22;11627;51.322;22.816;2024-02-21T09:25:46;5.80;99.90
22923;DHT22;11627;51.322;22.816;2024-02-21T09:28:13;6.10;99.90
22923;DHT22;11627;51.322;22.816;2024-02-21T09:35:35;6.10;99.90
22923;DHT22;11627;51.322;22.816;2024-02-21T09:43:02;6.20;99.90
22923;DHT22;11627;51.322;22.816;2024-02-21T09:45:32;6.30;99.90
22923;DHT22;11627;51.322;22.816;2024-02-21T09:50:47;6.60;99.90
22923;DHT22;11627;51.322;22.816;2024-02-21T09:53:15;6.50;99.90
22923;DHT22;11627;51.322;22.816;2024-02-21T09:55:45;6.60;99.90
22923;DHT22;11627;51.322;22.816;2024-02-21T10:00:39;6.90;99.90
22923;DHT22;11627;51.322;22.816;2024-02-21T10:03:05;6.60;99.90
22923;DHT22;11627;51.322;22.816;2024-02-21T10:05:37;6.70;99.90
22923;DHT22;11627;51.322;22.816;2024-02-21T10:08:04;6.70;99.90
22923;DHT22;11627;51.322;22.816;2024-02-21T10:10:44;7.20;99.90
22923;DHT22;11627;51.322;22.816;2024-02-21T10:13:21;6.60;99.90
22923;DHT22;11627;51.322;22.816;2024-02-21T10:16:00;6.70;99.90
22923;DHT22;11627;51.322;22.816;2024-02-21T10:18:33;6.70;99.90
22923;DHT22;11627;51.322;22.816;2024-02-21T10:21:03;7.00;99.90
22923;DHT22;11627;51.322;22.816;2024-02-21T10:23:49;6.50;99.90
22923;DHT22;11627;51.322;22.816;2024-02-21T10:26:21;6.60;99.90
22923;DHT22;11627;51.322;22.816;2024-02-21T10:28:48;6.30;99.90
22923;DHT22;11627;51.322;22.816;2024-02-21T10:31:24;7.10;99.90
22923;DHT22;11627;51.322;22.816;2024-02-21T10:33:59;6.80;99.90
22923;DHT22;11627;51.322;22.816;2024-02-21T10:36:29;6.70;99.90
22923;DHT22;11627;51.322;22.816;2024-02-21T10:38:57;6.60;99.90
22923;DHT22;11627;51.322;22.816;2024-02-21T10:41:24;7.40;99.90
22923;DHT22;11627;51.322;22.816;2024-02-21T10:43:53;6.70;99.90
22923;DHT22;11627;51.322;22.816;2024-02-21T10:46:22;6.70;99.90
22923;DHT22;11627;51.322;22.816;2024-02-21T10:49:12;6.40;99.90
22923;DHT22;11627;51.322;22.816;2024-02-21T10:51:43;6.50;99.90
22923;DHT22;11627;51.322;22.816;2024-02-21T10:57:13;6.60;99.90
22923;DHT22;11627;51.322;22.816;2024-02-21T10:59:44;6.40;99.90
22923;DHT22;11627;51.322;22.816;2024-02-21T11:04:37;6.80;99.90
22923;DHT22;11627;51.322;22.816;2024-02-21T11:07:05;6.80;99.90
22923;DHT22;11627;51.322;22.816;2024-02-21T11:09:32;6.60;99.90
22923;DHT22;11627;51.322;22.816;2024-02-21T11:12:04;6.50;99.90
22923;DHT22;11627;51.322;22.816;2024-02-21T11:14:33;6.50;99.90
22923;DHT22;11627;51.322;22.816;2024-02-21T11:17:23;6.50;99.90
22923;DHT22;11627;51.322;22.816;2024-02-21T11:19:53;6.70;99.90
22923;DHT22;11627;51.322;22.816;2024-02-21T11:22:20;6.70;99.90
22923;DHT22;11627;51.322;22.816;2024-02-21T11:27:21;6.70;99.90
22923;DHT22;11627;51.322;22.816;2024-02-21T11:30:03;6.70;99.90
22923;DHT22;11627;51.322;22.816;2024-02-21T11:32:31;7.10;99.90
22923;DHT22;11627;51.322;22.816;2024-02-21T11:34:58;6.70;99.90
22923;DHT22;11627;51.322;22.816;2024-02-21T11:37:32;7.20;99.90
22923;DHT22;11627;51.322;22.816;2024-02-21T11:40:01;7.00;99.90
22923;DHT22;11627;51.322;22.816;2024-02-21T11:44:59;7.00;99.90
22923;DHT22;11627;51.322;22.816;2024-02-21T11:47:27;7.30;99.90
22923;DHT22;11627;51.322;22.816;2024-02-21T11:52:25;7.20;99.90
22923;DHT22;11627;51.322;22.816;2024-02-21T11:54:53;7.30;99.90
22923;DHT22;11627;51.322;22.816;2024-02-21T11:57:22;7.50;99.10
22923;DHT22;11627;51.322;22.816;2024-02-21T11:59:48;7.60;99.90
22923;DHT22;11627;51.322;22.816;2024-02-21T12:02:18;7.40;93.10
22923;DHT22;11627;51.322;22.816;2024-02-21T12:09:42;7.90;84.30
22923;DHT22;11627;51.322;22.816;2024-02-21T12:14:35;8.10;55.00
22923;DHT22;11627;51.322;22.816;2024-02-21T12:17:04;8.20;52.30
22923;DHT22;11627;51.322;22.816;2024-02-21T12:19:32;8.20;32.40
22923;DHT22;11627;51.322;22.816;2024-02-21T12:22:04;8.10;44.10
22923;DHT22;11627;51.322;22.816;2024-02-21T12:27:01;8.10;61.30
22923;DHT22;11627;51.322;22.816;2024-02-21T12:29:30;8.10;41.30
22923;DHT22;11627;51.322;22.816;2024-02-21T12:31:56;8.20;48.30
22923;DHT22;11627;51.322;22.816;2024-02-21T12:34:24;8.10;32.20
22923;DHT22;11627;51.322;22.816;2024-02-21T12:39:18;8.60;41.90
22923;DHT22;11627;51.322;22.816;2024-02-21T12:41:45;8.50;30.90
22923;DHT22;11627;51.322;22.816;2024-02-21T12:46:38;8.70;1.00
22923;DHT22;11627;51.322;22.816;2024-02-21T12:49:05;8.40;1.00
22923;DHT22;11627;51.322;22.816;2024-02-21T12:51:34;8.20;3.70
22923;DHT22;11627;51.322;22.816;2024-02-21T12:54:00;8.50;1.00
22923;DHT22;11627;51.322;22.816;2024-02-21T12:56:30;8.70;1.70
22923;DHT22;11627;51.322;22.816;2024-02-21T12:58:59;8.50;1.00
22923;DHT22;11627;51.322;22.816;2024-02-21T13:01:25;8.30;1.00
22923;DHT22;11627;51.322;22.816;2024-02-21T13:03:51;8.20;1.00
22923;DHT22;11627;51.322;22.816;2024-02-21T13:08:45;8.40;1.00
22923;DHT22;11627;51.322;22.816;2024-02-21T13:11:13;8.10;1.00
22923;DHT22;11627;51.322;22.816;2024-02-21T13:13:42;8.30;2.50
22923;DHT22;11627;51.322;22.816;2024-02-21T13:16:09;7.90;1.00
22923;DHT22;11627;51.322;22.816;2024-02-21T13:21:04;7.60;5.70
22923;DHT22;11627;51.322;22.816;2024-02-21T13:23:32;7.80;14.50
22923;DHT22;11627;51.322;22.816;2024-02-21T13:25:58;8.00;19.90
22923;DHT22;11627;51.322;22.816;2024-02-21T13:28:24;8.00;48.50
22923;DHT22;11627;51.322;22.816;2024-02-21T13:30:51;7.80;20.70
22923;DHT22;11627;51.322;22.816;2024-02-21T13:33:18;7.60;26.90
22923;DHT22;11627;51.322;22.816;2024-02-21T13:35:44;7.80;27.30
22923;DHT22;11627;51.322;22.816;2024-02-21T13:38:11;7.80;43.60
22923;DHT22;11627;51.322;22.816;2024-02-21T13:40:39;8.20;48.50
22923;DHT22;11627;51.322;22.816;2024-02-21T13:43:06;8.30;38.90
22923;DHT22;11627;51.322;22.816;2024-02-21T13:45:33;8.00;36.90
22923;DHT22;11627;51.322;22.816;2024-02-21T13:47:59;7.90;45.20
22923;DHT22;11627;51.322;22.816;2024-02-21T13:50:29;7.90;44.10
22923;DHT22;11627;51.322;22.816;2024-02-21T13:52:56;7.90;64.30
22923;DHT22;11627;51.322;22.816;2024-02-21T13:57:51;8.10;55.10
22923;DHT22;11627;51.322;22.816;2024-02-21T14:00:20;8.00;16.40
22923;DHT22;11627;51.322;22.816;2024-02-21T14:02:46;8.00;26.00
22923;DHT22;11627;51.322;22.816;2024-02-21T14:05:13;8.40;39.40
22923;DHT22;11627;51.322;22.816;2024-02-21T14:07:40;8.20;23.80
22923;DHT22;11627;51.322;22.816;2024-02-21T14:10:08;8.00;1.30
22923;DHT22;11627;51.322;22.816;2024-02-21T14:15:03;7.70;32.30
22923;DHT22;11627;51.322;22.816;2024-02-21T14:17:34;7.70;28.70
22923;DHT22;11627;51.322;22.816;2024-02-21T14:20:02;7.90;21.90
22923;DHT22;11627;51.322;22.816;2024-02-21T14:22:30;8.00;30.70
22923;DHT22;11627;51.322;22.816;2024-02-21T14:24:56;8.00;40.00
22923;DHT22;11627;51.322;22.816;2024-02-21T14:27:23;7.70;20.90
22923;DHT22;11627;51.322;22.816;2024-02-21T14:29:49;7.80;39.10
22923;DHT22;11627;51.322;22.816;2024-02-21T14:32:16;7.60;38.50
22923;DHT22;11627;51.322;22.816;2024-02-21T14:34:42;7.80;36.00
22923;DHT22;11627;51.322;22.816;2024-02-21T14:37:10;7.60;50.00
22923;DHT22;11627;51.322;22.816;2024-02-21T14:39:37;7.40;75.90
22923;DHT22;11627;51.322;22.816;2024-02-21T14:42:04;7.40;47.70
22923;DHT22;11627;51.322;22.816;2024-02-21T14:46:57;8.00;57.70
22923;DHT22;11627;51.322;22.816;2024-02-21T14:49:22;7.70;68.10
22923;DHT22;11627;51.322;22.816;2024-02-21T14:51:51;7.40;76.30
22923;DHT22;11627;51.322;22.816;2024-02-21T14:54:19;7.70;86.40
22923;DHT22;11627;51.322;22.816;2024-02-21T14:56:46;7.80;71.50
22923;DHT22;11627;51.322;22.816;2024-02-21T14:59:13;7.70;85.80
22923;DHT22;11627;51.322;22.816;2024-02-21T15:01:42;7.40;96.50
22923;DHT22;11627;51.322;22.816;2024-02-21T15:04:08;7.50;99.90
22923;DHT22;11627;51.322;22.816;2024-02-21T15:06:37;7.60;97.60
22923;DHT22;11627;51.322;22.816;2024-02-21T15:09:04;7.40;99.90
22923;DHT22;11627;51.322;22.816;2024-02-21T15:11:32;7.20;99.90
22923;DHT22;11627;51.322;22.816;2024-02-21T15:13:59;7.10;99.90
22923;DHT22;11627;51.322;22.816;2024-02-21T15:18:51;7.20;99.90
22923;DHT22;11627;51.322;22.816;2024-02-21T15:21:16;7.60;99.90
22923;DHT22;11627;51.322;22.816;2024-02-21T15:23:44;7.40;99.90
22923;DHT22;11627;51.322;22.816;2024-02-21T15:28:39;7.40;99.90
22923;DHT22;11627;51.322;22.816;2024-02-21T15:31:05;7.10;99.90
22923;DHT22;11627;51.322;22.816;2024-02-21T15:33:32;7.00;99.90
22923;DHT22;11627;51.322;22.816;2024-02-21T15:36:00;7.20;99.90
22923;DHT22;11627;51.322;22.816;2024-02-21T15:38:30;7.00;99.90
22923;DHT22;11627;51.322;22.816;2024-02-21T15:40:57;7.10;99.90
22923;DHT22;11627;51.322;22.816;2024-02-21T15:43:24;7.20;99.90
22923;DHT22;11627;51.322;22.816;2024-02-21T15:45:53;7.00;99.90
22923;DHT22;11627;51.322;22.816;2024-02-21T15:48:21;7.00;99.90
22923;DHT22;11627;51.322;22.816;2024-02-21T15:50:49;7.10;99.90
22923;DHT22;11627;51.322;22.816;2024-02-21T15:53:15;6.70;99.90
22923;DHT22;11627;51.322;22.816;2024-02-21T15:58:07;6.80;99.90
22923;DHT22;11627;51.322;22.816;2024-02-21T16:00:33;6.60;99.90
22923;DHT22;11627;51.322;22.816;2024-02-21T16:03:00;7.10;99.90
22923;DHT22;11627;51.322;22.816;2024-02-21T16:05:26;6.80;99.90
22923;DHT22;11627;51.322;22.816;2024-02-21T16:07:55;6.70;99.90
22923;DHT22;11627;51.322;22.816;2024-02-21T16:10:21;6.90;99.90
22923;DHT22;11627;51.322;22.816;2024-02-21T16:12:47;6.80;99.90
22923;DHT22;11627;51.322;22.816;2024-02-21T16:15:16;6.80;99.90
22923;DHT22;11627;51.322;22.816;2024-02-21T16:17:42;6.50;99.90
22923;DHT22;11627;51.322;22.816;2024-02-21T16:20:10;6.70;99.90
22923;DHT22;11627;51.322;22.816;2024-02-21T16:22:43;6.80;99.90
22923;DHT22;11627;51.322;22.816;2024-02-21T16:27:41;6.60;99.90
22923;DHT22;11627;51.322;22.816;2024-02-21T16:30:07;6.70;99.90
22923;DHT22;11627;51.322;22.816;2024-02-21T16:32:36;6.60;99.90
22923;DHT22;11627;51.322;22.816;2024-02-21T16:35:07;6.80;99.90
22923;DHT22;11627;51.322;22.816;2024-02-21T16:37:34;6.80;99.90
22923;DHT22;11627;51.322;22.816;2024-02-21T16:40:02;6.80;99.90
22923;DHT22;11627;51.322;22.816;2024-02-21T16:42:30;6.50;99.90
22923;DHT22;11627;51.322;22.816;2024-02-21T16:44:57;6.60;99.90
22923;DHT22;11627;51.322;22.816;2024-02-21T16:49:51;6.70;99.90
22923;DHT22;11627;51.322;22.816;2024-02-21T16:57:11;6.50;99.90
22923;DHT22;11627;51.322;22.816;2024-02-21T17:02:04;6.60;99.90
22923;DHT22;11627;51.322;22.816;2024-02-21T17:04:32;6.60;99.90
22923;DHT22;11627;51.322;22.816;2024-02-21T17:07:00;6.60;99.90
22923;DHT22;11627;51.322;22.816;2024-02-21T17:09:27;6.40;99.90
22923;DHT22;11627;51.322;22.816;2024-02-21T17:11:55;6.60;99.90
22923;DHT22;11627;51.322;22.816;2024-02-21T17:14:26;6.50;99.90
22923;DHT22;11627;51.322;22.816;2024-02-21T17:16:53;6.30;99.90
22923;DHT22;11627;51.322;22.816;2024-02-21T17:19:21;6.50;99.90
22923;DHT22;11627;51.322;22.816;2024-02-21T17:21:50;6.50;99.90
22923;DHT22;11627;51.322;22.816;2024-02-21T17:24:17;6.50;99.90
22923;DHT22;11627;51.322;22.816;2024-02-21T17:26:43;6.70;99.90
22923;DHT22;11627;51.322;22.816;2024-02-21T17:29:09;6.70;99.90
22923;DHT22;11627;51.322;22.816;2024-02-21T17:31:35;6.40;99.90
22923;DHT22;11627;51.322;22.816;2024-02-21T17:34:01;6.40;99.90
22923;DHT22;11627;51.322;22.816;2024-02-21T17:36:28;6.30;99.90
22923;DHT22;11627;51.322;22.816;2024-02-21T17:38:55;6.40;99.90
22923;DHT22;11627;51.322;22.816;2024-02-21T17:43:48;6.60;99.90
22923;DHT22;11627;51.322;22.816;2024-02-21T17:46:14;6.50;99.90
22923;DHT22;11627;51.322;22.816;2024-02-21T17:48:42;6.50;99.90
22923;DHT22;11627;51.322;22.816;2024-02-21T17:53:35;6.60;99.90
22923;DHT22;11627;51.322;22.816;2024-02-21T17:56:03;6.80;99.90
22923;DHT22;11627;51.322;22.816;2024-02-21T17:58:31;6.80;99.90
22923;DHT22;11627;51.322;22.816;2024-02-21T18:00:58;6.80;99.90
22923;DHT22;11627;51.322;22.816;2024-02-21T18:03:26;6.90;99.90
22923;DHT22;11627;51.322;22.816;2024-02-21T18:06:00;6.50;99.90
22923;DHT22;11627;51.322;22.816;2024-02-21T18:08:28;6.60;99.90
22923;DHT22;11627;51.322;22.816;2024-02-21T18:10:55;7.10;99.90
22923;DHT22;11627;51.322;22.816;2024-02-21T18:13:21;7.10;99.90
22923;DHT22;11627;51.322;22.816;2024-02-21T18:15:50;6.60;99.90
22923;DHT22;11627;51.322;22.816;2024-02-21T18:20:42;6.80;99.90
22923;DHT22;11627;51.322;22.816;2024-02-21T18:23:09;6.40;99.90
22923;DHT22;11627;51.322;22.816;2024-02-21T18:25:35;6.90;99.90
22923;DHT22;11627;51.322;22.816;2024-02-21T18:28:02;6.90;99.90
22923;DHT22;11627;51.322;22.816;2024-02-21T18:30:30;6.70;99.90
22923;DHT22;11627;51.322;22.816;2024-02-21T18:35:25;6.60;99.90
22923;DHT22;11627;51.322;22.816;2024-02-21T18:40:19;6.70;99.90
22923;DHT22;11627;51.322;22.816;2024-02-21T18:42:45;6.80;99.90
22923;DHT22;11627;51.322;22.816;2024-02-21T18:45:12;6.40;99.90
22923;DHT22;11627;51.322;22.816;2024-02-21T18:50:07;6.80;99.90
22923;DHT22;11627;51.322;22.816;2024-02-21T18:52:34;6.70;99.90
22923;DHT22;11627;51.322;22.816;2024-02-21T18:55:00;6.60;99.90
22923;DHT22;11627;51.322;22.816;2024-02-21T18:59:58;6.60;99.90
22923;DHT22;11627;51.322;22.816;2024-02-21T19:02:25;6.60;99.90
22923;DHT22;11627;51.322;22.816;2024-02-21T19:07:18;6.80;99.90
22923;DHT22;11627;51.322;22.816;2024-02-21T19:12:14;6.60;99.90
22923;DHT22;11627;51.322;22.816;2024-02-21T19:19:41;6.60;99.90
22923;DHT22;11627;51.322;22.816;2024-02-21T19:22:12;7.10;99.90
22923;DHT22;11627;51.322;22.816;2024-02-21T19:24:39;6.50;99.90
22923;DHT22;11627;51.322;22.816;2024-02-21T19:27:05;6.70;99.90
22923;DHT22;11627;51.322;22.816;2024-02-21T19:29:31;6.90;99.90
22923;DHT22;11627;51.322;22.816;2024-02-21T19:34:28;6.80;99.90
22923;DHT22;11627;51.322;22.816;2024-02-21T19:36:55;6.70;99.90
22923;DHT22;11627;51.322;22.816;2024-02-21T19:39:21;6.80;99.90
22923;DHT22;11627;51.322;22.816;2024-02-21T19:41:50;7.00;99.90
22923;DHT22;11627;51.322;22.816;2024-02-21T19:46:48;7.00;99.90
22923;DHT22;11627;51.322;22.816;2024-02-21T19:49:14;7.00;99.90
22923;DHT22;11627;51.322;22.816;2024-02-21T19:54:08;6.90;99.90
22923;DHT22;11627;51.322;22.816;2024-02-21T19:56:34;7.00;99.90
22923;DHT22;11627;51.322;22.816;2024-02-21T20:01:27;7.00;99.90
22923;DHT22;11627;51.322;22.816;2024-02-21T20:03:52;6.80;99.90
22923;DHT22;11627;51.322;22.816;2024-02-21T20:06:18;6.80;99.90
22923;DHT22;11627;51.322;22.816;2024-02-21T20:08:46;7.00;99.90
22923;DHT22;11627;51.322;22.816;2024-02-21T20:11:12;7.10;99.90
22923;DHT22;11627;51.322;22.816;2024-02-21T20:16:07;6.70;99.90
22923;DHT22;11627;51.322;22.816;2024-02-21T20:18:35;7.20;99.90
22923;DHT22;11627;51.322;22.816;2024-02-21T20:21:03;6.90;99.90
22923;DHT22;11627;51.322;22.816;2024-02-21T20:23:29;6.60;99.90
22923;DHT22;11627;51.322;22.816;2024-02-21T20:25:58;6.50;99.90
22923;DHT22;11627;51.322;22.816;2024-02-21T20:30:50;6.50;99.90